createdAt,value
2023-04-17T00:00:03.210Z,85.3
2023-04-17T00:03:03.900Z,85.3
2023-04-17T00:06:03.217Z,85.3
2023-04-17T00:09:03.202Z,85.8
2023-04-17T00:12:03.181Z,85.8
2023-04-17T00:15:03.141Z,85.8
2023-04-17T00:18:03.378Z,85.8
2023-04-17T00:21:03.161Z,85.8
2023-04-17T00:24:03.152Z,85.8
2023-04-17T00:27:03.312Z,85.8
2023-04-17T00:30:03.228Z,85.8
2023-04-17T00:33:03.337Z,85.8
2023-04-17T00:36:03.228Z,85.8
2023-04-17T00:39:03.133Z,85.8
2023-04-17T00:42:03.179Z,85.8
2023-04-17T00:45:03.236Z,85.8
2023-04-17T00:48:03.326Z,85.8
2023-04-17T00:51:03.150Z,85.8
2023-04-17T00:54:03.233Z,85.8
2023-04-17T00:57:03.188Z,85.8
2023-04-17T01:00:03.244Z,85.8
2023-04-17T01:03:03.574Z,85.8
2023-04-17T01:06:03.203Z,85.8
2023-04-17T01:09:03.333Z,86
2023-04-17T01:12:03.145Z,86
2023-04-17T01:15:03.296Z,86
2023-04-17T01:18:03.310Z,86
2023-04-17T01:21:03.134Z,86
2023-04-17T01:24:03.143Z,86
2023-04-17T01:27:03.250Z,86
2023-04-17T01:30:03.209Z,86
2023-04-17T01:33:03.300Z,86
2023-04-17T01:36:03.134Z,86
2023-04-17T01:39:03.153Z,86
2023-04-17T01:42:03.168Z,86
2023-04-17T01:45:03.172Z,86
2023-04-17T01:48:03.420Z,86
2023-04-17T01:51:03.160Z,86
2023-04-17T01:54:03.138Z,86
2023-04-17T01:57:03.211Z,86
2023-04-17T02:00:03.265Z,86
2023-04-17T02:03:03.756Z,86
2023-04-17T02:06:03.217Z,86.9
2023-04-17T02:09:03.185Z,86.9
2023-04-17T02:12:03.206Z,86.9
2023-04-17T02:15:03.500Z,86.9
2023-04-17T02:18:03.275Z,86.9
2023-04-17T02:21:03.152Z,86.9
2023-04-17T02:24:03.129Z,86.9
2023-04-17T02:27:03.217Z,86.9
2023-04-17T02:30:03.178Z,86.9
2023-04-17T02:33:03.357Z,86.9
2023-04-17T02:36:03.155Z,86.9
2023-04-17T02:39:03.224Z,86.9
2023-04-17T02:42:03.195Z,86.9
2023-04-17T02:45:03.176Z,86.9
2023-04-17T02:48:03.403Z,86.9
2023-04-17T02:51:03.141Z,86.9
2023-04-17T02:54:03.145Z,86.9
2023-04-17T02:57:03.255Z,86.9
2023-04-17T03:00:03.281Z,86.9
2023-04-17T03:03:03.780Z,86.9
2023-04-17T03:06:03.237Z,86.9
2023-04-17T03:09:03.149Z,86.9
2023-04-17T03:12:03.265Z,86.9
2023-04-17T03:15:03.146Z,86.9
2023-04-17T03:18:03.279Z,86.9
2023-04-17T03:21:03.175Z,86.2
2023-04-17T03:24:03.176Z,86.2
2023-04-17T03:27:03.183Z,86.2
2023-04-17T03:30:03.218Z,86.2
2023-04-17T03:33:03.242Z,86.2
2023-04-17T03:36:03.153Z,86.2
2023-04-17T03:39:03.177Z,86.1
2023-04-17T03:42:03.176Z,86.1
2023-04-17T03:45:03.200Z,86.1
2023-04-17T03:48:03.317Z,86.1
2023-04-17T03:51:03.292Z,86.1
2023-04-17T03:54:03.410Z,86.1
2023-04-17T03:57:03.147Z,86.1
2023-04-17T04:00:03.268Z,86.1
2023-04-17T04:03:03.669Z,86.1
2023-04-17T04:06:03.129Z,86.1
2023-04-17T04:09:03.154Z,86.1
2023-04-17T04:12:03.189Z,86.1
2023-04-17T04:15:03.194Z,86.1
2023-04-17T04:18:03.502Z,86.1
2023-04-17T04:21:03.315Z,85.5
2023-04-17T04:24:03.238Z,85.5
2023-04-17T04:27:03.181Z,85.5
2023-04-17T04:30:03.327Z,85.5
2023-04-17T04:33:03.483Z,85.5
2023-04-17T04:36:03.815Z,85.5
2023-04-17T04:39:03.369Z,85.5
2023-04-17T04:42:03.319Z,85.5
2023-04-17T04:45:03.484Z,85.5
2023-04-17T04:48:03.524Z,85.5
2023-04-17T04:51:03.259Z,85.5
2023-04-17T04:54:03.223Z,85.5
2023-04-17T04:57:03.291Z,85.7
2023-04-17T05:00:04.185Z,85.7
2023-04-17T05:03:03.859Z,85.7
2023-04-17T05:06:03.378Z,85.7
2023-04-17T05:09:03.302Z,85.7
2023-04-17T05:12:03.301Z,85.7
2023-04-17T05:15:03.300Z,85.7
2023-04-17T05:18:03.584Z,85.7
2023-04-17T05:21:03.458Z,85.4
2023-04-17T05:24:03.462Z,85.4
2023-04-17T05:27:03.322Z,85.4
2023-04-17T05:30:04.251Z,85.4
2023-04-17T05:33:03.632Z,85.4
2023-04-17T05:36:03.314Z,85.4
2023-04-17T05:39:03.288Z,85.4
2023-04-17T05:42:03.282Z,85.4
2023-04-17T05:45:03.340Z,85.4
2023-04-17T05:48:03.476Z,85.4
2023-04-17T05:51:03.213Z,85.4
2023-04-17T05:54:03.540Z,85.4
2023-04-17T05:57:03.286Z,85.4
2023-04-17T06:00:03.357Z,84.9
2023-04-17T06:03:03.961Z,84.9
2023-04-17T06:06:03.406Z,84.9
2023-04-17T06:09:03.314Z,84.9
2023-04-17T06:12:03.250Z,84.9
2023-04-17T06:15:03.314Z,84.9
2023-04-17T06:18:03.423Z,84.9
2023-04-17T06:21:03.303Z,84.9
2023-04-17T06:24:03.408Z,84.9
2023-04-17T06:27:03.208Z,84.9
2023-04-17T06:30:03.326Z,84.9
2023-04-17T06:33:03.530Z,84.9
2023-04-17T06:36:03.149Z,84.9
2023-04-17T06:39:03.320Z,84.9
2023-04-17T06:42:03.257Z,84.9
2023-04-17T06:45:03.317Z,84.4
2023-04-17T06:48:03.368Z,84.4
2023-04-17T06:51:03.300Z,84.4
2023-04-17T06:54:03.317Z,84.4
2023-04-17T06:57:03.362Z,84.4
2023-04-17T07:00:04.055Z,84.4
2023-04-17T07:03:03.643Z,84.4
2023-04-17T07:06:03.239Z,84.4
2023-04-17T07:09:03.226Z,83.2
2023-04-17T07:12:03.281Z,83.2
2023-04-17T07:15:03.451Z,83.2
2023-04-17T07:18:03.392Z,83.2
2023-04-17T07:21:03.248Z,83.2
2023-04-17T07:24:03.304Z,82.3
2023-04-17T07:27:03.298Z,82.3
2023-04-17T07:30:03.223Z,82.3
2023-04-17T07:33:03.522Z,82.3
2023-04-17T07:36:03.330Z,82.3
2023-04-17T07:39:03.253Z,82.3
2023-04-17T07:42:03.272Z,82.3
2023-04-17T07:45:03.188Z,82.3
2023-04-17T07:48:03.457Z,80
2023-04-17T07:51:03.325Z,80
2023-04-17T07:54:03.373Z,80
2023-04-17T07:57:03.272Z,80
2023-04-17T08:00:03.545Z,79.5
2023-04-17T08:03:03.857Z,79.5
2023-04-17T08:06:03.382Z,79.5
2023-04-17T08:09:03.425Z,79.5
2023-04-17T08:12:03.259Z,76.3
2023-04-17T08:15:03.280Z,76.3
2023-04-17T08:18:03.438Z,76.3
2023-04-17T08:21:03.211Z,76.3
2023-04-17T08:24:03.345Z,76.3
2023-04-17T08:27:03.313Z,76.3
2023-04-17T08:30:03.393Z,76.3
2023-04-17T08:33:03.434Z,72.7
2023-04-17T08:36:08.968Z,72.7
2023-04-17T08:39:03.276Z,72.7
2023-04-17T08:42:03.408Z,72.7
2023-04-17T08:45:03.333Z,72.7
2023-04-17T08:48:03.389Z,72.7
2023-04-17T08:51:03.324Z,72.7
2023-04-17T08:54:03.276Z,72.7
2023-04-17T08:57:03.390Z,72.7
2023-04-17T09:00:03.327Z,69.5
2023-04-17T09:03:04.062Z,69.5
2023-04-17T09:06:03.207Z,69.5
2023-04-17T09:09:03.256Z,69.5
2023-04-17T09:12:03.320Z,69.5
2023-04-17T09:15:03.390Z,69.5
2023-04-17T09:18:03.368Z,69.5
2023-04-17T09:21:03.230Z,68.6
2023-04-17T09:24:03.239Z,68.6
2023-04-17T09:27:03.270Z,68.6
2023-04-17T09:30:03.332Z,68.6
2023-04-17T09:33:03.461Z,68.6
2023-04-17T09:36:03.334Z,67.7
2023-04-17T09:39:03.460Z,67.7
2023-04-17T09:42:06.368Z,67.7
2023-04-17T09:45:03.351Z,67.7
2023-04-17T09:48:03.853Z,67.7
2023-04-17T09:51:03.343Z,68.3
2023-04-17T09:54:03.273Z,68.3
2023-04-17T09:57:03.356Z,68.3
2023-04-17T10:00:03.340Z,68.3
2023-04-17T10:03:04.006Z,68.3
2023-04-17T10:06:03.279Z,68.3
2023-04-17T10:09:03.279Z,68.3
2023-04-17T10:12:03.256Z,68.3
2023-04-17T10:15:03.327Z,68.3
2023-04-17T10:18:03.513Z,68.3
2023-04-17T10:21:04.450Z,61.9
2023-04-17T10:24:03.285Z,61.9
2023-04-17T10:27:03.200Z,61.9
2023-04-17T10:30:03.420Z,61.9
2023-04-17T10:33:03.415Z,61.9
2023-04-17T10:36:03.332Z,61.9
2023-04-17T10:39:03.334Z,61.9
2023-04-17T10:42:03.234Z,61.9
2023-04-17T10:45:03.303Z,61.9
2023-04-17T10:48:03.576Z,58.5
2023-04-17T10:51:03.266Z,58.5
2023-04-17T10:54:03.277Z,58.5
2023-04-17T10:57:03.222Z,58.5
2023-04-17T11:00:03.388Z,58.5
2023-04-17T11:03:03.804Z,58.5
2023-04-17T11:06:03.315Z,58.5
2023-04-17T11:09:03.256Z,58.5
2023-04-17T11:12:03.329Z,58.5
2023-04-17T11:15:03.243Z,58.5
2023-04-17T11:18:03.418Z,58.5
2023-04-17T11:21:03.275Z,58.5
2023-04-17T11:24:03.319Z,58.5
2023-04-17T11:27:03.923Z,58.5
2023-04-17T11:30:03.498Z,58.5
2023-04-17T11:33:03.538Z,58.5
2023-04-17T11:36:03.374Z,58.5
2023-04-17T11:39:03.267Z,58.5
2023-04-17T11:42:03.395Z,58.5
2023-04-17T11:45:06.649Z,58.5
2023-04-17T11:48:03.395Z,58.5
2023-04-17T11:51:03.403Z,58.5
2023-04-17T11:54:03.295Z,58.5
2023-04-17T11:57:03.282Z,52.4
2023-04-17T12:00:03.325Z,52.4
2023-04-17T12:03:03.753Z,52.4
2023-04-17T12:06:03.481Z,52.4
2023-04-17T12:09:03.406Z,52.4
2023-04-17T12:12:03.358Z,52.4
2023-04-17T12:15:03.349Z,52.4
2023-04-17T12:18:03.422Z,52.4
2023-04-17T12:21:03.386Z,51.9
2023-04-17T12:24:03.231Z,51.9
2023-04-17T12:27:03.280Z,50.8
2023-04-17T12:30:03.331Z,50.8
2023-04-17T12:33:03.602Z,50.8
2023-04-17T12:36:03.416Z,50.8
2023-04-17T12:39:03.431Z,50.8
2023-04-17T12:42:03.339Z,50.8
2023-04-17T12:45:03.265Z,50.8
2023-04-17T12:48:03.402Z,50.8
2023-04-17T12:51:03.393Z,50.8
2023-04-17T12:54:03.271Z,50.8
2023-04-17T12:57:03.298Z,50.8
2023-04-17T13:00:03.383Z,50.8
2023-04-17T13:03:03.680Z,50.8
2023-04-17T13:06:03.286Z,50.8
2023-04-17T13:09:03.385Z,50.8
2023-04-17T13:12:03.782Z,50.8
2023-04-17T13:15:03.373Z,50.8
2023-04-17T13:18:03.319Z,50.8
2023-04-17T13:21:03.265Z,50.8
2023-04-17T13:24:03.270Z,50.8
2023-04-17T13:27:03.245Z,50.8
2023-04-17T13:30:03.238Z,50.8
2023-04-17T13:33:03.394Z,52.5
2023-04-17T13:36:03.412Z,52.5
2023-04-17T13:39:03.473Z,52.5
2023-04-17T13:42:03.285Z,52.5
2023-04-17T13:45:03.223Z,52.5
2023-04-17T13:48:03.513Z,52.5
2023-04-17T13:51:03.316Z,52.5
2023-04-17T13:54:03.357Z,52.5
2023-04-17T13:57:03.830Z,52.5
2023-04-17T14:00:03.393Z,52.5
2023-04-17T14:03:03.765Z,52.5
2023-04-17T14:06:03.222Z,50
2023-04-17T14:09:03.341Z,50
2023-04-17T14:12:03.365Z,50
2023-04-17T14:15:03.267Z,50
2023-04-17T14:18:03.388Z,50
2023-04-17T14:21:03.384Z,50
2023-04-17T14:24:03.342Z,50
2023-04-17T14:27:03.227Z,50
2023-04-17T14:30:04.247Z,50
2023-04-17T14:33:03.461Z,50
2023-04-17T14:36:05.256Z,50
2023-04-17T14:39:03.533Z,50
2023-04-17T14:42:04.858Z,50
2023-04-17T14:45:03.296Z,50
2023-04-17T14:48:03.479Z,50
2023-04-17T14:51:03.326Z,50
2023-04-17T14:54:03.264Z,50
2023-04-17T14:57:03.304Z,50
2023-04-17T15:00:03.333Z,51.1
2023-04-17T15:03:04.010Z,51.1
2023-04-17T15:06:03.369Z,51.1
2023-04-17T15:09:03.525Z,51.1
2023-04-17T15:12:03.260Z,51.1
2023-04-17T15:15:03.302Z,51.1
2023-04-17T15:18:03.370Z,51
2023-04-17T15:21:03.363Z,51
2023-04-17T15:24:03.210Z,51
2023-04-17T15:27:03.248Z,51
2023-04-17T15:30:03.246Z,51
2023-04-17T15:33:03.478Z,51
2023-04-17T15:36:03.221Z,51
2023-04-17T15:39:03.455Z,51
2023-04-17T15:42:03.277Z,51
2023-04-17T15:45:03.410Z,51
2023-04-17T15:48:03.717Z,51
2023-04-17T15:51:03.403Z,51
2023-04-17T15:54:03.259Z,51
2023-04-17T15:57:03.390Z,51
2023-04-17T16:00:03.310Z,51
2023-04-17T16:03:03.877Z,51
2023-04-17T16:06:03.225Z,51
2023-04-17T16:09:03.533Z,51
2023-04-17T16:12:03.256Z,51
2023-04-17T16:15:03.336Z,51
2023-04-17T16:18:03.440Z,51
2023-04-17T16:21:03.468Z,54.1
2023-04-17T16:24:03.296Z,54.1
2023-04-17T16:27:03.537Z,54.1
2023-04-17T16:30:03.333Z,54.1
2023-04-17T16:33:03.823Z,54.1
2023-04-17T16:36:03.290Z,54.1
2023-04-17T16:39:03.643Z,54.1
2023-04-17T16:42:03.336Z,54.1
2023-04-17T16:45:03.496Z,54.1
2023-04-17T16:48:03.462Z,58.3
2023-04-17T16:51:03.297Z,58.3
2023-04-17T16:54:03.226Z,58.3
2023-04-17T16:57:03.529Z,58.3
2023-04-17T17:00:03.300Z,58.3
2023-04-17T17:03:04.136Z,58.3
2023-04-17T17:06:03.247Z,58.3
2023-04-17T17:09:03.418Z,58.3
2023-04-17T17:12:03.157Z,62.1
2023-04-17T17:15:03.379Z,62.1
2023-04-17T17:18:03.438Z,62.1
2023-04-17T17:21:03.470Z,62.1
2023-04-17T17:24:03.249Z,62.1
2023-04-17T17:27:03.725Z,63.5
2023-04-17T17:30:03.491Z,63.5
2023-04-17T17:33:03.567Z,63.5
2023-04-17T17:36:03.420Z,63.5
2023-04-17T17:39:03.569Z,63.5
2023-04-17T17:42:03.259Z,65.3
2023-04-17T17:45:03.579Z,65.3
2023-04-17T17:48:03.414Z,65.3
2023-04-17T17:51:03.465Z,65.3
2023-04-17T17:54:03.206Z,65.3
2023-04-17T17:57:03.435Z,67.9
2023-04-17T18:00:03.445Z,67.9
2023-04-17T18:03:04.067Z,67.9
2023-04-17T18:06:03.240Z,68.3
2023-04-17T18:09:03.535Z,68.6
2023-04-17T18:12:03.234Z,68.6
2023-04-17T18:15:03.844Z,69.2
2023-04-17T18:18:03.383Z,69.2
2023-04-17T18:21:03.375Z,69.2
2023-04-17T18:24:03.162Z,69.2
2023-04-17T18:27:03.396Z,69.2
2023-04-17T18:30:03.282Z,70.2
2023-04-17T18:33:03.372Z,70.2
2023-04-17T18:36:03.238Z,70.2
2023-04-17T18:39:03.348Z,70.2
2023-04-17T18:42:03.173Z,70.2
2023-04-17T18:45:03.414Z,71.3
2023-04-17T18:48:03.347Z,71.3
2023-04-17T18:51:03.361Z,71.3
2023-04-17T18:54:03.176Z,71.3
2023-04-17T18:57:03.286Z,71.3
2023-04-17T19:00:03.153Z,71.3
2023-04-17T19:03:03.498Z,71.3
2023-04-17T19:06:03.151Z,72.1
2023-04-17T19:09:03.688Z,72.1
2023-04-17T19:12:03.156Z,72.1
2023-04-17T19:15:03.357Z,72.1
2023-04-17T19:18:03.302Z,72.1
2023-04-17T19:21:03.409Z,72.1
2023-04-17T19:24:03.339Z,72.1
2023-04-17T19:27:03.318Z,72.1
2023-04-17T19:30:03.238Z,72.1
2023-04-17T19:33:03.385Z,72.6
2023-04-17T19:36:03.251Z,72.6
2023-04-17T19:39:03.373Z,72.6
2023-04-17T19:42:03.225Z,72.6
2023-04-17T19:45:03.324Z,72.6
2023-04-17T19:48:03.314Z,72.6
2023-04-17T19:51:03.311Z,72.6
2023-04-17T19:54:03.305Z,72.6
2023-04-17T19:57:03.302Z,72.6
2023-04-17T20:00:03.291Z,72.6
2023-04-17T20:03:03.952Z,72.6
2023-04-17T20:06:03.196Z,73.4
2023-04-17T20:09:03.501Z,73.4
2023-04-17T20:12:03.188Z,73.4
2023-04-17T20:15:03.502Z,73.4
2023-04-17T20:18:03.302Z,73.4
2023-04-17T20:21:03.359Z,73.4
2023-04-17T20:24:03.214Z,73.4
2023-04-17T20:27:03.324Z,73.4
2023-04-17T20:30:03.215Z,73.4
2023-04-17T20:33:03.540Z,73.4
2023-04-17T20:36:03.227Z,73.4
2023-04-17T20:39:03.422Z,73.4
2023-04-17T20:42:03.169Z,73.4
2023-04-17T20:45:03.683Z,73.4
2023-04-17T20:48:03.371Z,73.4
2023-04-17T20:51:03.529Z,73.4
2023-04-17T20:54:03.143Z,73.4
2023-04-17T20:57:03.419Z,73.4
2023-04-17T21:00:03.188Z,73.4
2023-04-17T21:03:03.500Z,73.4
2023-04-17T21:06:03.150Z,73.4
2023-04-17T21:09:03.336Z,73.4
2023-04-17T21:12:03.183Z,73.4
2023-04-17T21:15:03.602Z,73.4
2023-04-17T21:18:03.272Z,73.4
2023-04-17T21:21:03.500Z,73.4
2023-04-17T21:24:03.213Z,73.4
2023-04-17T21:27:03.313Z,73.4
2023-04-17T21:30:03.192Z,73.4
2023-04-17T21:33:03.708Z,73.4
2023-04-17T21:36:03.176Z,73.4
2023-04-17T21:39:03.551Z,73.4
2023-04-17T21:42:03.290Z,73.4
2023-04-17T21:45:03.400Z,73.4
2023-04-17T21:48:03.480Z,73.4
2023-04-17T21:51:03.404Z,73.4
2023-04-17T21:54:03.262Z,73.4
2023-04-17T21:57:03.395Z,73.4
2023-04-17T22:00:04.017Z,73.4
2023-04-17T22:03:03.694Z,73.4
2023-04-17T22:06:03.158Z,73.4
2023-04-17T22:09:03.455Z,73.4
2023-04-17T22:12:03.164Z,73.4
2023-04-17T22:15:03.422Z,73.4
2023-04-17T22:18:03.353Z,73.4
2023-04-17T22:21:03.443Z,78
2023-04-17T22:24:03.206Z,78
2023-04-17T22:27:03.569Z,78
2023-04-17T22:30:03.336Z,78
2023-04-17T22:33:03.663Z,78
2023-04-17T22:36:03.294Z,78
2023-04-17T22:39:03.414Z,78
2023-04-17T22:42:03.251Z,78
2023-04-17T22:45:03.503Z,78
2023-04-17T22:48:03.401Z,78
2023-04-17T22:51:03.570Z,78
2023-04-17T22:54:25.219Z,78
2023-04-17T22:57:03.326Z,78
2023-04-17T23:00:03.351Z,78
2023-04-17T23:03:03.794Z,78
2023-04-17T23:06:03.213Z,78
2023-04-17T23:09:03.313Z,78
2023-04-17T23:12:03.261Z,80.3
2023-04-17T23:15:03.514Z,80.3
2023-04-17T23:18:03.266Z,80.3
2023-04-17T23:21:03.402Z,80.3
2023-04-17T23:24:03.206Z,80.3
2023-04-17T23:27:03.577Z,80.3
2023-04-17T23:30:03.242Z,80.3
2023-04-17T23:33:03.552Z,80.3
2023-04-17T23:36:03.215Z,80.3
2023-04-17T23:39:03.555Z,80.3
2023-04-17T23:42:03.180Z,80.3
2023-04-17T23:45:03.550Z,80.3
2023-04-17T23:48:03.379Z,80.3
2023-04-17T23:51:03.484Z,80.3
2023-04-17T23:54:03.188Z,80.3
2023-04-17T23:57:03.328Z,80.3
